Time;durP1;ratioP1;P1;durP2;ratioP2;P2;SDS_P1;SDS_P2;PMS_P1;PMS_P2;Temp;Humidity;BMP_temperature;BMP_pressure;BME280_temperature;BME280_humidity;BME280_pressure;Samples;Min_cycle;Max_cycle;Signal;HPM_P1;HPM_P2
2021/11/15 00:00:07;;;;;;;13.68;6.82;;;8.80;99.90;;;;;;4976465;28;20050;-86
2021/11/15 00:02:32;;;;;;;13.60;7.38;;;8.80;99.90;;;;;;4994671;28;20056;-86
2021/11/15 00:04:58;;;;;;;11.68;7.35;;;8.70;99.90;;;;;;5006631;28;20041;-87
2021/11/15 00:07:24;;;;;;;11.65;7.25;;;8.60;99.90;;;;;;5009505;28;20433;-86
2021/11/15 00:09:49;;;;;;;14.95;7.50;;;8.70;99.90;;;;;;4998111;28;20041;-86
2021/11/15 00:12:15;;;;;;;12.00;7.47;;;8.70;99.90;;;;;;5003918;28;20030;-86
2021/11/15 00:14:40;;;;;;;12.85;8.52;;;8.70;99.90;;;;;;5003929;28;20156;-86
2021/11/15 00:17:06;;;;;;;14.05;8.32;;;8.70;99.90;;;;;;4991181;28;20026;-86
2021/11/15 00:19:31;;;;;;;12.25;7.70;;;8.70;99.90;;;;;;5011162;28;20033;-86
2021/11/15 00:21:57;;;;;;;14.15;8.18;;;8.60;99.90;;;;;;5002976;28;20124;-86
2021/11/15 00:24:24;;;;;;;13.02;8.00;;;8.60;99.90;;;;;;5000453;28;20076;-86
2021/11/15 00:26:49;;;;;;;13.55;8.50;;;8.60;99.90;;;;;;4996161;28;20033;-86
2021/11/15 00:29:15;;;;;;;15.20;8.90;;;8.60;99.90;;;;;;5009859;28;20035;-86
2021/11/15 00:31:41;;;;;;;13.30;8.18;;;8.70;99.90;;;;;;4988273;28;20584;-86
2021/11/15 00:34:06;;;;;;;13.40;8.35;;;8.70;99.90;;;;;;4986296;28;20038;-87
2021/11/15 00:36:32;;;;;;;13.25;7.95;;;8.60;99.90;;;;;;4993845;28;20056;-87
2021/11/15 00:38:57;;;;;;;15.00;9.27;;;8.60;99.90;;;;;;4991478;28;20041;-87
2021/11/15 00:41:23;;;;;;;15.90;9.13;;;8.80;99.90;;;;;;5007864;28;20045;-87
2021/11/15 00:43:49;;;;;;;16.10;8.40;;;8.70;99.90;;;;;;5002824;28;20452;-87
2021/11/15 00:46:14;;;;;;;15.20;9.05;;;8.80;99.90;;;;;;5009359;28;20041;-86
2021/11/15 00:48:40;;;;;;;15.40;9.15;;;8.70;99.90;;;;;;4999382;28;20065;-86
2021/11/15 00:51:06;;;;;;;18.60;10.15;;;8.60;99.90;;;;;;5003689;28;20392;-87
2021/11/15 00:53:32;;;;;;;16.00;9.73;;;8.50;99.90;;;;;;4982241;28;20041;-86
2021/11/15 00:55:58;;;;;;;15.45;9.30;;;8.60;99.90;;;;;;5001782;28;20041;-87
2021/11/15 00:58:24;;;;;;;15.07;8.98;;;8.60;99.90;;;;;;4988045;28;20112;-87
2021/11/15 01:00:49;;;;;;;15.52;9.02;;;8.60;99.90;;;;;;5008351;28;20072;-87
2021/11/15 01:03:16;;;;;;;14.40;9.13;;;8.60;99.90;;;;;;5005053;28;20041;-87
2021/11/15 01:05:48;;;;;;;15.45;9.20;;;8.60;99.90;;;;;;5015590;28;20037;-87
2021/11/15 01:08:16;;;;;;;15.43;9.02;;;8.60;99.90;;;;;;4993220;28;20381;-87
2021/11/15 01:10:42;;;;;;;16.30;9.82;;;8.60;99.90;;;;;;4996680;28;20070;-87
2021/11/15 01:13:08;;;;;;;15.40;9.40;;;8.60;99.90;;;;;;4989741;28;20041;-86
2021/11/15 01:15:34;;;;;;;15.27;10.38;;;8.60;99.90;;;;;;5009255;28;20031;-87
2021/11/15 01:18:01;;;;;;;16.00;10.43;;;8.60;99.90;;;;;;5010726;28;20033;-87
2021/11/15 01:20:31;;;;;;;16.95;10.30;;;8.80;99.90;;;;;;4998359;28;20044;-87
2021/11/15 01:22:57;;;;;;;16.67;9.90;;;8.70;99.90;;;;;;4986527;28;20037;-87
2021/11/15 01:25:22;;;;;;;16.63;10.50;;;8.60;99.90;;;;;;5014939;28;20037;-87
2021/11/15 01:27:48;;;;;;;17.40;10.20;;;8.50;99.90;;;;;;5009953;28;20136;-87
2021/11/15 01:30:17;;;;;;;19.95;10.93;;;8.50;99.90;;;;;;4992815;28;20060;-87
2021/11/15 01:32:43;;;;;;;17.15;10.65;;;8.60;99.90;;;;;;5003696;28;20034;-86
2021/11/15 01:35:10;;;;;;;17.73;10.90;;;8.60;99.90;;;;;;5008678;28;20403;-87
2021/11/15 01:37:36;;;;;;;17.10;10.27;;;8.50;99.90;;;;;;5011097;28;20476;-87
2021/11/15 01:40:04;;;;;;;20.52;11.23;;;8.50;99.90;;;;;;4999784;28;20118;-87
2021/11/15 01:42:30;;;;;;;17.10;11.10;;;8.50;99.90;;;;;;5014295;28;20175;-87
2021/11/15 01:44:55;;;;;;;16.77;10.10;;;8.50;99.90;;;;;;5001417;28;20046;-86
2021/11/15 01:47:21;;;;;;;17.55;10.70;;;8.50;99.90;;;;;;5007627;28;20091;-86
2021/11/15 01:49:47;;;;;;;16.00;9.93;;;8.50;99.90;;;;;;5001973;28;20046;-86
2021/11/15 01:52:13;;;;;;;20.17;10.80;;;8.50;99.90;;;;;;5014219;28;20056;-86
2021/11/15 01:54:39;;;;;;;19.92;11.52;;;8.50;99.90;;;;;;5000252;28;20091;-86
2021/11/15 01:57:04;;;;;;;19.20;11.00;;;8.40;99.90;;;;;;5005098;28;20038;-86
2021/11/15 01:59:30;;;;;;;20.50;10.40;;;8.50;99.90;;;;;;5007631;28;20120;-87
2021/11/15 02:01:56;;;;;;;19.55;11.00;;;8.60;99.90;;;;;;4999132;28;20034;-86
2021/11/15 02:04:22;;;;;;;19.55;10.57;;;8.60;99.90;;;;;;4979137;28;20045;-87
2021/11/15 02:06:47;;;;;;;17.73;9.77;;;8.60;99.90;;;;;;5004798;28;20048;-86
2021/11/15 02:09:13;;;;;;;19.67;11.10;;;8.50;99.90;;;;;;4998513;28;20404;-87
2021/11/15 02:11:39;;;;;;;22.48;11.75;;;8.50;99.90;;;;;;5002328;28;20136;-86
2021/11/15 02:14:06;;;;;;;20.77;11.63;;;8.50;99.90;;;;;;5000212;28;20061;-86
2021/11/15 02:16:32;;;;;;;20.90;11.52;;;8.40;99.90;;;;;;4989321;28;20041;-86
2021/11/15 02:18:59;;;;;;;22.40;11.68;;;8.40;99.90;;;;;;4999146;28;20408;-86
2021/11/15 02:21:24;;;;;;;20.83;11.82;;;8.40;99.90;;;;;;5007206;28;20038;-86
2021/11/15 02:23:51;;;;;;;20.60;11.43;;;8.40;99.90;;;;;;5005283;28;20056;-86
2021/11/15 02:26:22;;;;;;;22.23;11.45;;;8.30;99.90;;;;;;4996237;28;20044;-86
2021/11/15 02:28:50;;;;;;;22.35;12.07;;;8.30;99.90;;;;;;5011331;28;20585;-87
2021/11/15 02:31:23;;;;;;;24.02;11.65;;;8.30;99.90;;;;;;5031154;28;20048;-86
2021/11/15 02:33:51;;;;;;;23.65;12.45;;;8.40;99.90;;;;;;4995203;28;20041;-87
2021/11/15 02:36:19;;;;;;;23.45;13.00;;;8.40;99.90;;;;;;4991138;28;20044;-86
2021/11/15 02:38:46;;;;;;;25.23;13.18;;;8.40;99.90;;;;;;4986204;28;20060;-86
2021/11/15 02:41:12;;;;;;;26.70;13.73;;;8.30;99.90;;;;;;5005285;28;20038;-86
2021/11/15 02:43:37;;;;;;;28.58;15.55;;;8.30;99.90;;;;;;5003978;28;20357;-87
2021/11/15 02:46:03;;;;;;;33.25;16.50;;;8.50;99.90;;;;;;5000647;28;20492;-86
2021/11/15 02:48:30;;;;;;;39.03;21.40;;;8.40;99.90;;;;;;5012063;28;20442;-86
2021/11/15 02:50:56;;;;;;;45.20;23.65;;;8.30;99.90;;;;;;5005558;28;20056;-86
2021/11/15 02:53:23;;;;;;;50.17;24.05;;;8.30;99.90;;;;;;5012988;28;20075;-87
2021/11/15 02:55:48;;;;;;;45.30;22.42;;;8.30;99.90;;;;;;4989492;28;20049;-87
2021/11/15 02:58:15;;;;;;;38.92;18.38;;;8.20;99.90;;;;;;4992824;28;20069;-86
2021/11/15 03:00:50;;;;;;;33.65;16.98;;;8.40;99.90;;;;;;4990289;28;20052;-87
2021/11/15 03:03:16;;;;;;;32.17;16.17;;;8.30;99.90;;;;;;5005004;28;20045;-86
2021/11/15 03:05:46;;;;;;;31.20;15.00;;;8.20;99.90;;;;;;5002600;28;20492;-87
2021/11/15 03:08:13;;;;;;;32.30;14.98;;;8.30;99.90;;;;;;5010615;28;20041;-86
2021/11/15 03:10:41;;;;;;;27.92;13.95;;;8.20;99.90;;;;;;5009764;28;20044;-86
2021/11/15 03:13:09;;;;;;;27.60;14.10;;;8.20;99.90;;;;;;5013079;28;20061;-86
2021/11/15 03:15:39;;;;;;;28.73;14.70;;;8.20;99.90;;;;;;4993130;28;20060;-86
2021/11/15 03:18:07;;;;;;;28.27;15.15;;;8.10;99.90;;;;;;5011948;28;20045;-86
2021/11/15 03:20:37;;;;;;;32.05;15.80;;;8.20;99.90;;;;;;4993730;28;20514;-87
2021/11/15 03:23:08;;;;;;;28.80;15.05;;;8.20;99.90;;;;;;5011663;28;20049;-86
2021/11/15 03:25:34;;;;;;;31.20;15.88;;;8.10;99.90;;;;;;4995674;28;20091;-87
2021/11/15 03:27:59;;;;;;;32.78;15.75;;;8.10;99.90;;;;;;5006490;28;20045;-86
2021/11/15 03:30:26;;;;;;;31.50;15.90;;;8.10;99.90;;;;;;4991484;28;20489;-87
2021/11/15 03:32:53;;;;;;;29.50;15.48;;;8.10;99.90;;;;;;5020576;28;20044;-86
2021/11/15 03:35:19;;;;;;;32.13;15.50;;;8.10;99.90;;;;;;5017673;28;20510;-86
2021/11/15 03:37:45;;;;;;;34.65;15.02;;;8.00;99.90;;;;;;5008537;28;20124;-87
2021/11/15 03:40:15;;;;;;;28.02;14.27;;;8.00;99.90;;;;;;5006839;28;20069;-87
2021/11/15 03:42:43;;;;;;;32.65;16.20;;;8.10;99.90;;;;;;4985688;28;20049;-86
2021/11/15 03:45:09;;;;;;;33.78;15.35;;;8.10;99.90;;;;;;5008927;28;20041;-86
2021/11/15 03:47:35;;;;;;;33.25;15.70;;;8.20;99.90;;;;;;4990846;28;20045;-86
2021/11/15 03:50:02;;;;;;;32.35;16.70;;;8.10;99.90;;;;;;5001973;28;20037;-86
2021/11/15 03:52:28;;;;;;;32.63;16.23;;;8.10;99.90;;;;;;4991953;28;20029;-87
2021/11/15 03:54:53;;;;;;;34.25;16.38;;;8.00;99.90;;;;;;4996807;28;20034;-86
2021/11/15 03:57:19;;;;;;;36.72;16.92;;;8.00;99.90;;;;;;5004197;28;20395;-86
2021/11/15 03:59:45;;;;;;;35.22;16.92;;;8.10;99.90;;;;;;4994916;28;20045;-87
2021/11/15 04:02:11;;;;;;;36.53;17.77;;;8.20;99.90;;;;;;5000148;28;20080;-87
2021/11/15 04:04:56;;;;;;;30.63;13.52;;;8.20;99.90;;;;;;5003798;28;20037;-86
2021/11/15 04:07:32;;;;;;;35.13;16.65;;;8.30;99.90;;;;;;5009317;28;20061;-86
2021/11/15 04:10:00;;;;;;;41.20;17.88;;;8.20;99.90;;;;;;4992404;28;20497;-86
2021/11/15 04:12:27;;;;;;;31.67;15.80;;;8.00;99.90;;;;;;4992166;28;20037;-86
2021/11/15 04:14:53;;;;;;;35.50;16.50;;;7.90;99.90;;;;;;5010956;28;20099;-86
2021/11/15 04:17:21;;;;;;;34.33;16.30;;;7.90;99.90;;;;;;5006612;28;20061;-86
2021/11/15 04:19:50;;;;;;;31.58;14.05;;;7.90;99.90;;;;;;4991507;28;20067;-87
2021/11/15 04:22:15;;;;;;;26.88;13.45;;;8.00;99.90;;;;;;5006620;28;20084;-86
2021/11/15 04:24:42;;;;;;;30.20;13.98;;;7.90;99.90;;;;;;5002280;28;20065;-86
2021/11/15 04:27:08;;;;;;;26.85;11.38;;;7.80;99.90;;;;;;5000819;28;20053;-86
2021/11/15 04:29:35;;;;;;;30.98;13.63;;;8.00;99.90;;;;;;4996707;28;20116;-86
2021/11/15 04:32:05;;;;;;;30.00;13.02;;;7.90;99.90;;;;;;5012237;28;20495;-86
2021/11/15 04:34:30;;;;;;;31.75;12.85;;;7.90;99.90;;;;;;4995528;28;20033;-86
2021/11/15 04:36:56;;;;;;;30.33;13.48;;;7.80;99.90;;;;;;4987965;28;20103;-86
2021/11/15 04:39:21;;;;;;;27.77;13.35;;;7.80;99.90;;;;;;5010390;28;20041;-86
2021/11/15 04:41:47;;;;;;;33.15;13.63;;;7.80;99.90;;;;;;4998105;28;20045;-86
2021/11/15 04:44:13;;;;;;;30.60;13.63;;;7.90;99.90;;;;;;4999864;28;20041;-86
2021/11/15 04:46:38;;;;;;;26.65;13.38;;;7.80;99.90;;;;;;4990058;28;20076;-86
2021/11/15 04:49:04;;;;;;;34.72;13.93;;;7.70;99.90;;;;;;4989651;28;20033;-86
2021/11/15 04:51:33;;;;;;;32.00;13.85;;;7.70;99.90;;;;;;5009666;28;20044;-86
2021/11/15 04:53:58;;;;;;;29.15;14.20;;;7.80;99.90;;;;;;5000930;28;20077;-86
2021/11/15 04:56:24;;;;;;;33.20;14.30;;;7.70;99.90;;;;;;4994434;28;20080;-86
2021/11/15 04:58:50;;;;;;;30.15;13.88;;;7.70;99.90;;;;;;4990268;28;20093;-86
2021/11/15 05:01:16;;;;;;;26.83;13.27;;;7.70;99.90;;;;;;4993850;28;20046;-86
2021/11/15 05:03:42;;;;;;;30.98;13.55;;;7.80;99.90;;;;;;5002607;28;20038;-86
2021/11/15 05:06:07;;;;;;;27.45;12.77;;;7.80;99.90;;;;;;5008547;28;20034;-86
2021/11/15 05:08:33;;;;;;;31.90;13.10;;;7.70;99.90;;;;;;5006402;28;20044;-86
2021/11/15 05:10:59;;;;;;;29.10;12.77;;;7.70;99.90;;;;;;4995730;28;20477;-86
2021/11/15 05:13:25;;;;;;;26.80;12.88;;;7.70;99.90;;;;;;5018689;28;20036;-86
2021/11/15 05:15:50;;;;;;;29.10;13.93;;;7.80;99.90;;;;;;4997780;28;20484;-86
2021/11/15 05:18:16;;;;;;;30.00;13.48;;;7.70;99.90;;;;;;5009246;28;20030;-86
2021/11/15 05:20:42;;;;;;;26.65;13.07;;;7.70;99.90;;;;;;4988330;28;20045;-87
2021/11/15 05:23:07;;;;;;;31.08;13.68;;;7.60;99.90;;;;;;4988067;28;20044;-86
2021/11/15 05:25:33;;;;;;;28.20;13.25;;;7.60;99.90;;;;;;4997913;28;20091;-87
2021/11/15 05:27:59;;;;;;;29.23;13.50;;;7.60;99.90;;;;;;4989619;28;20037;-86
2021/11/15 05:30:25;;;;;;;29.98;13.23;;;7.60;99.90;;;;;;5015049;28;20096;-86
2021/11/15 05:32:51;;;;;;;29.83;13.93;;;7.70;99.90;;;;;;5009241;28;20124;-87
2021/11/15 05:35:18;;;;;;;29.42;13.93;;;7.70;99.90;;;;;;5011978;28;20029;-89
2021/11/15 05:37:44;;;;;;;28.30;13.13;;;7.60;99.90;;;;;;4996281;28;20072;-87
2021/11/15 05:40:12;;;;;;;27.48;12.68;;;7.60;99.90;;;;;;5008406;28;20041;-87
2021/11/15 05:42:38;;;;;;;25.73;11.75;;;7.60;99.90;;;;;;4996365;28;20476;-87
2021/11/15 05:45:05;;;;;;;23.17;11.30;;;7.60;99.90;;;;;;5000967;28;20048;-87
2021/11/15 05:47:31;;;;;;;24.63;11.23;;;7.70;99.90;;;;;;5005419;28;20389;-88
2021/11/15 05:49:57;;;;;;;21.85;10.23;;;7.60;99.90;;;;;;5013796;28;20201;-87
2021/11/15 05:52:23;;;;;;;22.80;11.00;;;7.60;99.90;;;;;;4998705;28;20041;-87
2021/11/15 05:54:50;;;;;;;24.40;10.50;;;7.50;99.90;;;;;;4992847;28;20334;-88
2021/11/15 05:57:16;;;;;;;21.92;10.13;;;7.50;99.90;;;;;;4984185;28;20034;-87
2021/11/15 05:59:43;;;;;;;21.83;10.43;;;7.40;99.90;;;;;;5008624;28;20535;-87
2021/11/15 06:02:09;;;;;;;25.98;11.05;;;7.40;99.90;;;;;;5011160;28;20475;-87
2021/11/15 06:04:35;;;;;;;24.75;11.48;;;7.40;99.90;;;;;;5006678;28;20041;-86
2021/11/15 06:07:01;;;;;;;23.27;10.93;;;7.40;99.90;;;;;;5011765;28;20418;-86
2021/11/15 06:09:26;;;;;;;28.27;11.60;;;7.40;99.90;;;;;;4992429;28;20117;-86
2021/11/15 06:11:52;;;;;;;27.75;11.90;;;7.40;99.90;;;;;;5005916;28;20196;-86
2021/11/15 06:14:18;;;;;;;25.42;11.10;;;7.30;99.90;;;;;;5007484;28;20036;-86
2021/11/15 06:16:43;;;;;;;29.45;12.48;;;7.30;99.90;;;;;;4998567;28;20033;-86
2021/11/15 06:19:09;;;;;;;27.92;11.48;;;7.30;99.90;;;;;;4995039;28;20382;-86
2021/11/15 06:21:34;;;;;;;29.25;11.88;;;7.30;99.90;;;;;;5002290;28;20423;-86
2021/11/15 06:24:01;;;;;;;31.58;12.98;;;7.30;99.90;;;;;;4994817;28;20037;-85
2021/11/15 06:26:28;;;;;;;29.83;12.68;;;7.20;99.90;;;;;;5014255;28;20513;-84
2021/11/15 06:28:54;;;;;;;32.05;12.52;;;7.20;99.90;;;;;;5001537;28;20546;-87
2021/11/15 06:31:20;;;;;;;31.20;14.02;;;7.20;99.90;;;;;;5011470;28;20084;-88
2021/11/15 06:33:49;;;;;;;30.13;13.07;;;7.20;99.90;;;;;;4995790;28;20041;-88
2021/11/15 06:36:22;;;;;;;31.50;13.32;;;7.20;99.90;;;;;;4986077;28;20073;-87
2021/11/15 06:38:49;;;;;;;32.42;14.05;;;7.20;99.90;;;;;;5015220;28;20044;-87
2021/11/15 06:41:14;;;;;;;31.67;13.63;;;7.20;99.90;;;;;;5008602;28;20125;-87
2021/11/15 06:43:40;;;;;;;36.15;14.77;;;7.10;99.90;;;;;;5005187;28;20116;-87
2021/11/15 06:46:05;;;;;;;35.00;14.15;;;7.10;99.90;;;;;;4994237;28;20041;-88
2021/11/15 06:48:37;;;;;;;32.17;13.20;;;7.10;99.90;;;;;;4993062;28;20038;-87
2021/11/15 06:51:04;;;;;;;33.13;13.90;;;7.20;99.90;;;;;;5013336;28;20128;-87
2021/11/15 06:53:31;;;;;;;38.40;14.18;;;7.10;99.90;;;;;;4992930;28;20029;-86
2021/11/15 06:55:58;;;;;;;34.35;13.52;;;7.10;99.90;;;;;;5002754;28;20037;-87
2021/11/15 06:58:25;;;;;;;37.58;14.20;;;7.20;99.90;;;;;;5011267;28;20048;-86
2021/11/15 07:00:52;;;;;;;32.92;14.20;;;7.30;99.90;;;;;;5006333;28;20041;-86
2021/11/15 07:03:17;;;;;;;35.40;14.30;;;7.20;99.90;;;;;;4999297;28;20573;-86
2021/11/15 07:05:43;;;;;;;37.90;14.73;;;7.20;99.90;;;;;;5002230;28;20120;-86
2021/11/15 07:08:08;;;;;;;38.85;15.25;;;7.20;99.90;;;;;;5012123;28;20322;-86
2021/11/15 07:10:35;;;;;;;40.92;14.70;;;7.20;99.90;;;;;;4991761;28;20495;-85
2021/11/15 07:13:00;;;;;;;35.47;14.68;;;7.30;99.90;;;;;;4988617;28;20038;-85
2021/11/15 07:15:26;;;;;;;39.92;15.48;;;7.20;99.90;;;;;;5006313;28;20036;-85
2021/11/15 07:17:52;;;;;;;44.53;15.05;;;7.20;99.90;;;;;;4989210;28;20040;-85
2021/11/15 07:20:18;;;;;;;42.28;15.63;;;7.20;99.90;;;;;;5006718;28;20045;-85
2021/11/15 07:22:47;;;;;;;42.80;15.13;;;7.20;99.90;;;;;;4999813;28;20046;-85
2021/11/15 07:25:14;;;;;;;42.13;15.63;;;7.10;99.90;;;;;;5010511;28;20393;-86
2021/11/15 07:27:40;;;;;;;43.08;15.68;;;7.30;99.90;;;;;;4996300;28;20037;-84
2021/11/15 07:30:07;;;;;;;38.22;15.45;;;7.20;99.90;;;;;;4995141;28;20048;-85
2021/11/15 07:32:33;;;;;;;47.05;16.20;;;7.10;99.90;;;;;;5005737;28;20073;-85
2021/11/15 07:34:58;;;;;;;42.10;16.25;;;7.10;99.90;;;;;;4987052;28;20069;-85
2021/11/15 07:37:24;;;;;;;38.35;13.25;;;7.10;99.90;;;;;;4991263;28;20053;-85
2021/11/15 07:39:50;;;;;;;38.15;14.70;;;7.20;99.90;;;;;;5009103;28;20160;-85
2021/11/15 07:42:17;;;;;;;40.58;14.00;;;7.20;99.90;;;;;;4988009;28;20033;-85
2021/11/15 07:44:44;;;;;;;41.35;14.27;;;7.20;99.90;;;;;;5004837;28;20030;-85
2021/11/15 07:47:10;;;;;;;49.28;14.88;;;7.10;99.90;;;;;;5002798;28;20034;-85
2021/11/15 07:49:36;;;;;;;40.92;13.75;;;7.10;99.90;;;;;;4990158;28;20546;-85
2021/11/15 07:52:03;;;;;;;40.17;15.05;;;7.10;99.90;;;;;;5003054;28;20063;-85
2021/11/15 07:54:29;;;;;;;33.80;12.18;;;7.00;99.90;;;;;;4999202;28;20089;-85
2021/11/15 07:56:55;;;;;;;34.40;12.43;;;7.00;99.90;;;;;;4985210;28;20065;-85
2021/11/15 07:59:20;;;;;;;44.75;14.48;;;6.90;99.90;;;;;;4987300;28;20088;-85
2021/11/15 08:01:46;;;;;;;37.25;12.55;;;6.90;99.90;;;;;;5009297;28;20048;-85
2021/11/15 08:04:11;;;;;;;39.72;13.23;;;6.90;99.90;;;;;;5011125;28;20036;-85
2021/11/15 08:06:37;;;;;;;41.42;14.27;;;6.80;99.90;;;;;;5001802;28;20097;-85
2021/11/15 08:09:03;;;;;;;40.90;15.00;;;6.80;99.90;;;;;;5006989;28;20041;-85
2021/11/15 08:11:31;;;;;;;41.78;14.25;;;6.80;99.90;;;;;;4993979;28;20072;-85
2021/11/15 08:13:57;;;;;;;43.97;13.50;;;6.80;99.90;;;;;;5005436;28;20038;-86
2021/11/15 08:16:23;;;;;;;38.00;13.40;;;6.80;99.90;;;;;;4994158;28;20083;-85
2021/11/15 08:18:48;;;;;;;37.70;12.60;;;6.80;99.90;;;;;;5008118;28;20033;-86
2021/11/15 08:21:14;;;;;;;39.35;14.20;;;6.90;99.90;;;;;;5006891;28;20033;-85
2021/11/15 08:23:47;;;;;;;35.90;13.35;;;6.90;99.90;;;;;;5013757;28;20103;-85
2021/11/15 08:26:37;;;;;;;37.65;13.30;;;6.80;99.90;;;;;;5008644;28;20076;-85
2021/11/15 08:29:06;;;;;;;41.17;13.77;;;6.70;99.90;;;;;;4987374;28;20499;-85
2021/11/15 08:31:33;;;;;;;39.72;14.00;;;6.70;99.90;;;;;;5016042;28;20041;-85
2021/11/15 08:33:59;;;;;;;42.47;14.90;;;6.70;99.90;;;;;;5018147;28;20499;-84
2021/11/15 08:36:26;;;;;;;32.92;14.27;;;6.70;99.90;;;;;;5008242;28;20122;-84
2021/11/15 08:38:53;;;;;;;40.30;14.73;;;6.70;99.90;;;;;;5003367;28;20041;-85
2021/11/15 08:41:28;;;;;;;37.20;14.30;;;6.70;99.90;;;;;;5006245;28;20037;-84
2021/11/15 08:43:56;;;;;;;34.55;13.15;;;6.70;99.90;;;;;;5027243;28;20136;-84
2021/11/15 08:46:24;;;;;;;34.38;14.07;;;6.70;99.90;;;;;;4988307;28;20107;-85
2021/11/15 08:48:50;;;;;;;36.22;14.98;;;6.70;99.90;;;;;;5003145;28;20666;-85
2021/11/15 08:51:17;;;;;;;37.42;13.85;;;6.70;99.90;;;;;;4994714;28;20037;-84
2021/11/15 08:53:44;;;;;;;36.95;14.48;;;6.70;99.90;;;;;;4998263;28;20041;-84
2021/11/15 08:56:10;;;;;;;38.35;13.80;;;6.70;99.90;;;;;;5017494;28;20480;-84
2021/11/15 08:58:37;;;;;;;35.70;13.68;;;6.70;99.90;;;;;;4992451;28;20041;-84
2021/11/15 09:01:03;;;;;;;30.85;11.30;;;6.70;99.90;;;;;;4993164;28;20447;-84
2021/11/15 09:03:29;;;;;;;30.65;11.40;;;6.80;99.90;;;;;;5012608;28;20124;-84
2021/11/15 09:05:55;;;;;;;29.15;11.57;;;6.70;99.90;;;;;;5007770;28;20440;-85
2021/11/15 09:08:22;;;;;;;26.42;9.68;;;6.70;99.90;;;;;;5004682;28;20043;-85
2021/11/15 09:10:48;;;;;;;30.23;11.45;;;6.80;99.90;;;;;;4990417;28;20515;-85
2021/11/15 09:13:15;;;;;;;30.30;11.23;;;6.70;99.90;;;;;;5011069;28;20038;-84
2021/11/15 09:15:41;;;;;;;26.70;10.38;;;6.70;99.90;;;;;;5005303;28;20459;-85
2021/11/15 09:18:06;;;;;;;28.95;10.63;;;6.70;99.90;;;;;;5001396;28;20264;-84
2021/11/15 09:20:32;;;;;;;26.00;10.68;;;6.60;99.90;;;;;;5015414;28;20041;-84
2021/11/15 09:22:58;;;;;;;28.38;10.40;;;6.60;99.90;;;;;;5015250;28;20103;-85
2021/11/15 09:25:24;;;;;;;28.20;10.48;;;6.70;99.90;;;;;;5010905;28;20116;-85
2021/11/15 09:27:49;;;;;;;32.95;11.75;;;6.70;99.90;;;;;;5004879;28;20037;-85
2021/11/15 09:30:17;;;;;;;31.15;12.63;;;6.70;99.90;;;;;;5007653;28;20038;-84
2021/11/15 09:32:43;;;;;;;33.78;12.23;;;6.70;99.90;;;;;;5004155;28;20128;-85
2021/11/15 09:35:10;;;;;;;29.88;10.07;;;6.70;99.90;;;;;;5008665;28;20045;-85
2021/11/15 09:37:36;;;;;;;24.77;9.25;;;6.80;99.90;;;;;;4996341;28;20045;-85
2021/11/15 09:40:04;;;;;;;24.92;9.95;;;6.80;99.90;;;;;;4999883;28;20472;-84
2021/11/15 09:42:30;;;;;;;23.65;9.77;;;6.70;99.90;;;;;;5000114;28;20041;-84
2021/11/15 09:44:55;;;;;;;27.60;9.23;;;6.70;99.90;;;;;;5010499;28;20034;-84
2021/11/15 09:47:21;;;;;;;22.95;9.50;;;6.70;99.90;;;;;;4997989;28;20029;-84
2021/11/15 09:49:47;;;;;;;22.95;8.60;;;6.70;99.90;;;;;;5013432;28;20397;-84
2021/11/15 09:52:12;;;;;;;22.85;7.90;;;6.60;99.90;;;;;;5013320;28;20037;-85
2021/11/15 09:54:38;;;;;;;26.33;10.38;;;6.60;99.90;;;;;;5009514;28;20061;-84
2021/11/15 09:57:04;;;;;;;25.30;8.95;;;6.60;99.90;;;;;;5005483;28;20040;-84
2021/11/15 09:59:31;;;;;;;28.73;10.05;;;6.70;99.90;;;;;;4982400;28;20037;-85
2021/11/15 10:01:58;;;;;;;25.10;9.88;;;6.70;99.90;;;;;;5006100;28;20057;-84
2021/11/15 10:04:25;;;;;;;27.10;9.93;;;6.70;99.90;;;;;;5000116;28;20034;-84
2021/11/15 10:06:53;;;;;;;25.52;9.85;;;6.70;99.90;;;;;;5010403;28;20140;-85
2021/11/15 10:09:27;;;;;;;27.45;10.60;;;6.60;99.90;;;;;;5012540;28;20044;-85
2021/11/15 10:11:54;;;;;;;24.80;10.85;;;6.60;99.90;;;;;;5007246;28;20034;-85
2021/11/15 10:14:20;;;;;;;28.42;10.98;;;6.60;99.90;;;;;;4991189;28;20506;-84
2021/11/15 10:16:56;;;;;;;28.98;11.50;;;6.80;99.90;;;;;;4989476;28;20037;-84
2021/11/15 10:19:23;;;;;;;27.13;10.50;;;6.60;99.90;;;;;;5012003;28;20037;-84
2021/11/15 10:21:54;;;;;;;23.10;9.50;;;6.60;99.90;;;;;;4988346;28;20450;-85
2021/11/15 10:24:33;;;;;;;24.85;10.23;;;6.60;99.90;;;;;;4995859;28;20033;-84
2021/11/15 10:27:19;;;;;;;30.20;10.98;;;6.70;99.90;;;;;;5006785;28;20529;-84
2021/11/15 10:29:49;;;;;;;26.35;10.40;;;6.70;99.90;;;;;;4998351;28;20048;-85
2021/11/15 10:32:32;;;;;;;24.55;10.20;;;6.60;99.90;;;;;;5008283;28;20037;-85
2021/11/15 10:35:00;;;;;;;25.30;10.68;;;6.70;99.90;;;;;;5007027;28;20025;-84
2021/11/15 10:37:28;;;;;;;29.80;10.90;;;6.70;99.90;;;;;;5006201;28;20037;-85
2021/11/15 10:40:03;;;;;;;27.42;11.02;;;6.70;99.90;;;;;;5008514;28;20042;-84
2021/11/15 10:42:31;;;;;;;28.40;12.18;;;6.70;99.90;;;;;;5008555;28;20037;-84
2021/11/15 10:45:17;;;;;;;24.60;9.85;;;6.70;99.90;;;;;;5022188;28;20099;-85
2021/11/15 10:47:54;;;;;;;28.65;11.18;;;6.70;99.90;;;;;;5027149;28;20049;-85
2021/11/15 10:50:31;;;;;;;28.58;11.13;;;6.80;99.90;;;;;;5011857;28;20045;-84
2021/11/15 10:53:02;;;;;;;24.00;10.05;;;6.80;99.90;;;;;;5013209;28;20112;-85
2021/11/15 10:55:37;;;;;;;27.38;11.05;;;6.80;99.90;;;;;;4992198;28;20038;-85
2021/11/15 10:58:23;;;;;;;28.05;10.95;;;6.70;99.90;;;;;;5003242;28;20550;-84
2021/11/15 11:00:52;;;;;;;30.00;11.43;;;6.70;99.90;;;;;;4989856;28;20041;-84
2021/11/15 11:03:21;;;;;;;28.08;10.70;;;6.70;99.90;;;;;;5011529;28;20124;-85
2021/11/15 11:05:49;;;;;;;26.50;11.57;;;6.70;99.90;;;;;;5013246;28;20041;-84
2021/11/15 11:08:24;;;;;;;33.65;12.52;;;6.70;99.90;;;;;;5012008;28;20505;-84
2021/11/15 11:10:52;;;;;;;33.92;12.63;;;6.60;99.90;;;;;;4984550;28;20132;-84
2021/11/15 11:13:21;;;;;;;33.83;13.05;;;6.60;99.90;;;;;;5008059;28;20037;-85
2021/11/15 11:15:50;;;;;;;34.22;12.77;;;6.70;99.90;;;;;;5005098;28;20116;-84
2021/11/15 11:23:48;;;;;;;32.58;13.43;;;6.60;99.90;;;;;;5010269;28;20057;-85
2021/11/15 11:26:19;;;;;;;36.58;13.90;;;6.60;99.90;;;;;;5006916;28;20069;-87
2021/11/15 11:28:54;;;;;;;50.63;16.85;;;6.60;99.90;;;;;;5001260;28;20045;-84
2021/11/15 11:31:20;;;;;;;47.08;16.58;;;6.60;99.90;;;;;;5009359;28;20045;-87
2021/11/15 11:33:46;;;;;;;52.58;18.10;;;6.60;99.90;;;;;;4994409;28;20484;-86
2021/11/15 11:36:12;;;;;;;63.30;20.75;;;6.70;99.90;;;;;;4983096;28;20092;-87
2021/11/15 11:38:40;;;;;;;60.33;21.25;;;6.70;99.90;;;;;;5008112;28;20037;-87
2021/11/15 11:41:06;;;;;;;66.07;23.38;;;6.70;99.90;;;;;;4985760;28;20124;-86
2021/11/15 11:43:32;;;;;;;69.07;23.35;;;6.70;99.90;;;;;;4994778;28;20084;-87
2021/11/15 11:45:58;;;;;;;73.25;25.83;;;6.60;99.90;;;;;;5003979;28;20041;-87
2021/11/15 11:48:25;;;;;;;78.13;25.77;;;6.60;99.90;;;;;;4991365;28;20553;-86
2021/11/15 11:50:53;;;;;;;70.07;22.73;;;6.60;99.90;;;;;;5002039;28;20046;-86
2021/11/15 11:53:22;;;;;;;67.65;22.80;;;6.70;99.90;;;;;;5008924;28;20099;-87
2021/11/15 11:55:49;;;;;;;73.10;25.30;;;6.60;99.90;;;;;;4992252;28;20500;-86
2021/11/15 11:58:34;;;;;;;71.95;25.23;;;6.70;99.90;;;;;;4989680;28;20033;-87
2021/11/15 12:01:03;;;;;;;80.55;25.00;;;6.60;99.90;;;;;;5007678;28;20104;-85
2021/11/15 12:03:30;;;;;;;57.30;20.33;;;6.70;99.90;;;;;;5006718;28;20495;-84
2021/11/15 12:05:57;;;;;;;73.80;23.75;;;6.70;99.90;;;;;;5004996;28;20070;-85
2021/11/15 12:08:56;;;;;;;72.55;26.05;;;6.70;99.90;;;;;;4994887;28;20033;-84
2021/11/15 12:11:22;;;;;;;80.13;27.30;;;6.70;99.90;;;;;;4995554;28;20169;-84
2021/11/15 12:13:48;;;;;;;80.85;28.20;;;6.60;99.90;;;;;;5008798;28;20052;-84
2021/11/15 12:16:15;;;;;;;82.07;28.10;;;6.60;99.90;;;;;;4982372;28;20026;-84
2021/11/15 12:18:58;;;;;;;85.15;28.55;;;6.60;99.90;;;;;;5008605;28;20065;-84
2021/11/15 12:21:32;;;;;;;71.43;27.40;;;6.60;99.90;;;;;;4991879;28;20061;-84
2021/11/15 12:24:04;;;;;;;81.20;28.92;;;6.60;99.90;;;;;;4993159;28;20132;-84
2021/11/15 12:26:36;;;;;;;72.72;27.75;;;6.60;99.90;;;;;;5006588;28;20050;-84
2021/11/15 12:29:36;;;;;;;78.32;28.85;;;6.60;99.90;;;;;;5022261;28;20135;-85
2021/11/15 12:32:12;;;;;;;76.55;26.92;;;6.70;99.90;;;;;;5019276;28;20073;-85
2021/11/15 12:35:05;;;;;;;80.18;28.40;;;6.80;99.90;;;;;;5006127;28;20045;-84
2021/11/15 12:37:39;;;;;;;83.53;29.00;;;6.70;99.90;;;;;;5003019;28;20054;-84
2021/11/15 12:40:30;;;;;;;77.57;26.98;;;6.60;99.90;;;;;;5000459;28;20037;-84
2021/11/15 12:43:16;;;;;;;85.65;30.00;;;6.70;99.90;;;;;;4987748;28;20037;-84
2021/11/15 12:46:05;;;;;;;82.85;28.60;;;6.70;99.90;;;;;;5002669;28;20088;-84